sensor_id;sensor_type;location;lat;lon;timestamp;temperature;humidity
24252;DHT22;12380;51.118;4.176;2023-02-26T00:02:24;2.00;99.90
24252;DHT22;12380;51.118;4.176;2023-02-26T00:04:50;2.10;99.90
24252;DHT22;12380;51.118;4.176;2023-02-26T00:07:17;2.00;99.90
24252;DHT22;12380;51.118;4.176;2023-02-26T00:09:43;2.00;99.90
24252;DHT22;12380;51.118;4.176;2023-02-26T00:12:12;2.10;99.90
24252;DHT22;12380;51.118;4.176;2023-02-26T00:14:40;1.90;99.90
24252;DHT22;12380;51.118;4.176;2023-02-26T00:17:41;1.80;99.90
24252;DHT22;12380;51.118;4.176;2023-02-26T00:20:10;1.70;99.90
24252;DHT22;12380;51.118;4.176;2023-02-26T00:22:38;1.80;99.90
24252;DHT22;12380;51.118;4.176;2023-02-26T00:25:04;1.70;99.90
24252;DHT22;12380;51.118;4.176;2023-02-26T00:27:30;1.60;99.90
24252;DHT22;12380;51.118;4.176;2023-02-26T00:29:56;1.50;99.90
24252;DHT22;12380;51.118;4.176;2023-02-26T00:32:25;1.40;99.90
24252;DHT22;12380;51.118;4.176;2023-02-26T00:34:51;1.50;99.90
24252;DHT22;12380;51.118;4.176;2023-02-26T00:40:03;1.50;99.90
24252;DHT22;12380;51.118;4.176;2023-02-26T00:42:33;1.70;99.90
24252;DHT22;12380;51.118;4.176;2023-02-26T00:45:00;1.80;99.90
24252;DHT22;12380;51.118;4.176;2023-02-26T00:55:16;1.50;99.90
24252;DHT22;12380;51.118;4.176;2023-02-26T00:57:42;1.50;99.90
24252;DHT22;12380;51.118;4.176;2023-02-26T01:00:11;1.50;99.90
24252;DHT22;12380;51.118;4.176;2023-02-26T01:02:38;1.70;99.90
24252;DHT22;12380;51.118;4.176;2023-02-26T01:05:05;1.90;99.90
24252;DHT22;12380;51.118;4.176;2023-02-26T01:10:10;2.00;99.90
24252;DHT22;12380;51.118;4.176;2023-02-26T01:12:38;2.20;99.90
24252;DHT22;12380;51.118;4.176;2023-02-26T01:15:05;2.40;99.90
24252;DHT22;12380;51.118;4.176;2023-02-26T01:17:39;2.40;99.90
24252;DHT22;12380;51.118;4.176;2023-02-26T01:20:23;2.40;99.90
24252;DHT22;12380;51.118;4.176;2023-02-26T01:23:08;2.40;99.90
24252;DHT22;12380;51.118;4.176;2023-02-26T01:26:05;2.40;99.90
24252;DHT22;12380;51.118;4.176;2023-02-26T01:28:32;2.40;99.90
24252;DHT22;12380;51.118;4.176;2023-02-26T01:31:02;2.50;99.90
24252;DHT22;12380;51.118;4.176;2023-02-26T01:35:57;2.60;99.90
24252;DHT22;12380;51.118;4.176;2023-02-26T01:42:18;2.60;99.90
24252;DHT22;12380;51.118;4.176;2023-02-26T01:45:10;2.50;99.90
24252;DHT22;12380;51.118;4.176;2023-02-26T01:50:25;2.70;99.90
24252;DHT22;12380;51.118;4.176;2023-02-26T01:55:41;2.50;99.90
24252;DHT22;12380;51.118;4.176;2023-02-26T01:58:13;2.60;99.90
24252;DHT22;12380;51.118;4.176;2023-02-26T02:00:39;2.90;99.90
24252;DHT22;12380;51.118;4.176;2023-02-26T02:03:05;2.90;99.90
24252;DHT22;12380;51.118;4.176;2023-02-26T02:05:34;2.80;99.90
24252;DHT22;12380;51.118;4.176;2023-02-26T02:08:03;2.60;99.90
24252;DHT22;12380;51.118;4.176;2023-02-26T02:10:31;2.60;99.90
24252;DHT22;12380;51.118;4.176;2023-02-26T02:18:51;2.70;99.90
24252;DHT22;12380;51.118;4.176;2023-02-26T02:21:33;2.40;99.90
24252;DHT22;12380;51.118;4.176;2023-02-26T02:24:27;2.30;99.90
24252;DHT22;12380;51.118;4.176;2023-02-26T02:27:38;2.20;99.90
24252;DHT22;12380;51.118;4.176;2023-02-26T02:30:32;2.00;99.90
24252;DHT22;12380;51.118;4.176;2023-02-26T02:33:13;2.10;99.90
24252;DHT22;12380;51.118;4.176;2023-02-26T02:35:54;2.30;99.90
24252;DHT22;12380;51.118;4.176;2023-02-26T02:38:34;2.20;99.90
24252;DHT22;12380;51.118;4.176;2023-02-26T02:41:16;2.20;99.90
24252;DHT22;12380;51.118;4.176;2023-02-26T02:43:44;2.20;99.90
24252;DHT22;12380;51.118;4.176;2023-02-26T02:46:19;2.80;99.90
24252;DHT22;12380;51.118;4.176;2023-02-26T02:51:26;2.70;99.90
24252;DHT22;12380;51.118;4.176;2023-02-26T02:54:16;2.30;99.90
24252;DHT22;12380;51.118;4.176;2023-02-26T03:01:41;2.30;99.90
24252;DHT22;12380;51.118;4.176;2023-02-26T03:04:10;2.30;99.90
24252;DHT22;12380;51.118;4.176;2023-02-26T03:06:37;2.60;99.90
24252;DHT22;12380;51.118;4.176;2023-02-26T03:09:05;2.40;99.90
24252;DHT22;12380;51.118;4.176;2023-02-26T03:11:31;2.60;99.90
24252;DHT22;12380;51.118;4.176;2023-02-26T03:13:58;3.00;99.90
24252;DHT22;12380;51.118;4.176;2023-02-26T03:19:23;3.20;99.90
24252;DHT22;12380;51.118;4.176;2023-02-26T03:24:36;2.70;99.90
24252;DHT22;12380;51.118;4.176;2023-02-26T03:29:44;2.70;99.90
24252;DHT22;12380;51.118;4.176;2023-02-26T03:34:49;2.50;99.90
24252;DHT22;12380;51.118;4.176;2023-02-26T03:37:29;2.60;99.90
24252;DHT22;12380;51.118;4.176;2023-02-26T03:40:03;2.70;99.90
24252;DHT22;12380;51.118;4.176;2023-02-26T03:45:28;2.60;99.90
24252;DHT22;12380;51.118;4.176;2023-02-26T03:47:56;2.60;99.90
24252;DHT22;12380;51.118;4.176;2023-02-26T03:50:33;2.30;99.90
24252;DHT22;12380;51.118;4.176;2023-02-26T03:53:02;2.50;99.90
24252;DHT22;12380;51.118;4.176;2023-02-26T03:58:18;2.50;99.90
24252;DHT22;12380;51.118;4.176;2023-02-26T04:00:48;2.30;99.90
24252;DHT22;12380;51.118;4.176;2023-02-26T04:03:24;2.40;99.90
24252;DHT22;12380;51.118;4.176;2023-02-26T04:05:54;2.20;99.90
24252;DHT22;12380;51.118;4.176;2023-02-26T04:08:21;2.20;99.90
24252;DHT22;12380;51.118;4.176;2023-02-26T04:10:56;2.30;99.90
24252;DHT22;12380;51.118;4.176;2023-02-26T04:13:23;2.30;99.90
24252;DHT22;12380;51.118;4.176;2023-02-26T04:15:50;2.40;99.90
24252;DHT22;12380;51.118;4.176;2023-02-26T04:18:16;2.40;99.90
24252;DHT22;12380;51.118;4.176;2023-02-26T04:20:44;2.30;99.90
24252;DHT22;12380;51.118;4.176;2023-02-26T04:23:13;2.40;99.90
24252;DHT22;12380;51.118;4.176;2023-02-26T04:25:38;2.50;99.90
24252;DHT22;12380;51.118;4.176;2023-02-26T04:28:04;2.30;99.90
24252;DHT22;12380;51.118;4.176;2023-02-26T04:30:30;2.20;99.90
24252;DHT22;12380;51.118;4.176;2023-02-26T04:32:55;2.30;99.90
24252;DHT22;12380;51.118;4.176;2023-02-26T04:35:21;2.10;99.90
24252;DHT22;12380;51.118;4.176;2023-02-26T04:37:47;2.30;99.90
24252;DHT22;12380;51.118;4.176;2023-02-26T04:40:15;2.30;99.90
24252;DHT22;12380;51.118;4.176;2023-02-26T04:42:41;2.20;99.90
24252;DHT22;12380;51.118;4.176;2023-02-26T04:45:07;2.20;99.90
24252;DHT22;12380;51.118;4.176;2023-02-26T04:47:33;2.30;99.90
24252;DHT22;12380;51.118;4.176;2023-02-26T04:49:59;2.40;99.90
24252;DHT22;12380;51.118;4.176;2023-02-26T04:52:25;2.50;99.90
24252;DHT22;12380;51.118;4.176;2023-02-26T04:54:50;2.60;99.90
24252;DHT22;12380;51.118;4.176;2023-02-26T04:57:16;2.30;99.90
24252;DHT22;12380;51.118;4.176;2023-02-26T04:59:42;2.40;99.90
24252;DHT22;12380;51.118;4.176;2023-02-26T05:02:10;2.40;99.90
24252;DHT22;12380;51.118;4.176;2023-02-26T05:04:36;2.30;99.90
24252;DHT22;12380;51.118;4.176;2023-02-26T05:07:06;2.40;99.90
24252;DHT22;12380;51.118;4.176;2023-02-26T05:09:32;2.40;99.90
24252;DHT22;12380;51.118;4.176;2023-02-26T05:11:57;2.40;99.90
24252;DHT22;12380;51.118;4.176;2023-02-26T05:14:23;2.40;99.90
24252;DHT22;12380;51.118;4.176;2023-02-26T05:16:49;2.40;99.90
24252;DHT22;12380;51.118;4.176;2023-02-26T05:19:15;2.30;99.90
24252;DHT22;12380;51.118;4.176;2023-02-26T05:21:43;2.50;99.90
24252;DHT22;12380;51.118;4.176;2023-02-26T05:24:09;2.60;99.90
24252;DHT22;12380;51.118;4.176;2023-02-26T05:26:34;2.30;99.90
24252;DHT22;12380;51.118;4.176;2023-02-26T05:29:00;2.40;99.90
24252;DHT22;12380;51.118;4.176;2023-02-26T05:31:29;2.40;99.90
24252;DHT22;12380;51.118;4.176;2023-02-26T05:33:56;2.20;99.90
24252;DHT22;12380;51.118;4.176;2023-02-26T05:36:22;2.30;99.90
24252;DHT22;12380;51.118;4.176;2023-02-26T05:38:48;2.20;99.90
24252;DHT22;12380;51.118;4.176;2023-02-26T05:41:14;2.10;99.90
24252;DHT22;12380;51.118;4.176;2023-02-26T05:43:39;2.10;99.90
24252;DHT22;12380;51.118;4.176;2023-02-26T05:46:06;2.10;99.90
24252;DHT22;12380;51.118;4.176;2023-02-26T05:48:32;2.10;99.90
24252;DHT22;12380;51.118;4.176;2023-02-26T05:50:58;2.10;99.90
24252;DHT22;12380;51.118;4.176;2023-02-26T05:53:24;2.10;99.90
24252;DHT22;12380;51.118;4.176;2023-02-26T05:55:54;1.70;99.90
24252;DHT22;12380;51.118;4.176;2023-02-26T05:58:20;1.80;99.90
24252;DHT22;12380;51.118;4.176;2023-02-26T06:00:45;2.00;99.90
24252;DHT22;12380;51.118;4.176;2023-02-26T06:03:11;1.80;99.90
24252;DHT22;12380;51.118;4.176;2023-02-26T06:05:37;1.80;99.90
24252;DHT22;12380;51.118;4.176;2023-02-26T06:08:04;1.80;99.90
24252;DHT22;12380;51.118;4.176;2023-02-26T06:10:30;1.90;99.90
24252;DHT22;12380;51.118;4.176;2023-02-26T06:12:56;2.00;99.90
24252;DHT22;12380;51.118;4.176;2023-02-26T06:15:22;1.90;99.90
24252;DHT22;12380;51.118;4.176;2023-02-26T06:17:50;1.90;99.90
24252;DHT22;12380;51.118;4.176;2023-02-26T06:20:16;1.70;99.90
24252;DHT22;12380;51.118;4.176;2023-02-26T06:22:44;1.50;99.90
24252;DHT22;12380;51.118;4.176;2023-02-26T06:25:10;1.30;99.90
24252;DHT22;12380;51.118;4.176;2023-02-26T06:27:36;1.40;99.90
24252;DHT22;12380;51.118;4.176;2023-02-26T06:30:03;1.40;99.90
24252;DHT22;12380;51.118;4.176;2023-02-26T06:32:29;1.50;99.90
24252;DHT22;12380;51.118;4.176;2023-02-26T06:34:54;1.50;99.90
24252;DHT22;12380;51.118;4.176;2023-02-26T06:37:20;1.60;99.90
24252;DHT22;12380;51.118;4.176;2023-02-26T06:39:46;1.50;99.90
24252;DHT22;12380;51.118;4.176;2023-02-26T06:42:11;1.50;99.90
24252;DHT22;12380;51.118;4.176;2023-02-26T06:44:37;1.50;99.90
24252;DHT22;12380;51.118;4.176;2023-02-26T06:47:03;1.40;99.90
24252;DHT22;12380;51.118;4.176;2023-02-26T06:49:29;1.60;99.90
24252;DHT22;12380;51.118;4.176;2023-02-26T06:51:54;1.70;99.90
24252;DHT22;12380;51.118;4.176;2023-02-26T06:54:21;1.70;99.90
24252;DHT22;12380;51.118;4.176;2023-02-26T06:56:47;1.80;99.90
24252;DHT22;12380;51.118;4.176;2023-02-26T06:59:12;1.60;99.90
24252;DHT22;12380;51.118;4.176;2023-02-26T07:01:39;1.70;99.90
24252;DHT22;12380;51.118;4.176;2023-02-26T07:04:05;1.90;99.90
24252;DHT22;12380;51.118;4.176;2023-02-26T07:06:31;1.80;99.90
24252;DHT22;12380;51.118;4.176;2023-02-26T07:08:57;1.70;99.90
24252;DHT22;12380;51.118;4.176;2023-02-26T07:11:25;1.80;99.90
24252;DHT22;12380;51.118;4.176;2023-02-26T07:13:51;2.00;99.90
24252;DHT22;12380;51.118;4.176;2023-02-26T07:16:16;2.10;99.90
24252;DHT22;12380;51.118;4.176;2023-02-26T07:18:42;1.80;99.90
24252;DHT22;12380;51.118;4.176;2023-02-26T07:21:08;1.80;99.90
24252;DHT22;12380;51.118;4.176;2023-02-26T07:23:34;1.60;99.90
24252;DHT22;12380;51.118;4.176;2023-02-26T07:25:59;1.90;99.90
24252;DHT22;12380;51.118;4.176;2023-02-26T07:28:25;1.60;99.90
24252;DHT22;12380;51.118;4.176;2023-02-26T07:30:53;1.60;99.90
24252;DHT22;12380;51.118;4.176;2023-02-26T07:33:20;1.80;99.90
24252;DHT22;12380;51.118;4.176;2023-02-26T07:35:46;1.70;99.90
24252;DHT22;12380;51.118;4.176;2023-02-26T07:38:12;1.70;99.90
24252;DHT22;12380;51.118;4.176;2023-02-26T07:40:37;1.60;99.90
24252;DHT22;12380;51.118;4.176;2023-02-26T07:43:03;1.70;99.90
24252;DHT22;12380;51.118;4.176;2023-02-26T07:45:32;1.70;99.90
24252;DHT22;12380;51.118;4.176;2023-02-26T07:47:58;1.70;99.90
24252;DHT22;12380;51.118;4.176;2023-02-26T07:50:24;1.90;99.90
24252;DHT22;12380;51.118;4.176;2023-02-26T07:52:54;2.00;99.90
24252;DHT22;12380;51.118;4.176;2023-02-26T07:55:20;1.90;99.90
24252;DHT22;12380;51.118;4.176;2023-02-26T07:57:46;1.90;99.90
24252;DHT22;12380;51.118;4.176;2023-02-26T08:00:13;2.30;99.90
24252;DHT22;12380;51.118;4.176;2023-02-26T08:02:40;2.10;99.90
24252;DHT22;12380;51.118;4.176;2023-02-26T08:05:05;2.00;99.90
24252;DHT22;12380;51.118;4.176;2023-02-26T08:07:31;1.90;99.90
24252;DHT22;12380;51.118;4.176;2023-02-26T08:09:57;1.90;99.90
24252;DHT22;12380;51.118;4.176;2023-02-26T08:12:23;2.10;99.90
24252;DHT22;12380;51.118;4.176;2023-02-26T08:14:51;2.20;99.90
24252;DHT22;12380;51.118;4.176;2023-02-26T08:17:16;3.10;99.90
24252;DHT22;12380;51.118;4.176;2023-02-26T08:19:42;4.10;99.90
24252;DHT22;12380;51.118;4.176;2023-02-26T08:22:10;5.00;99.90
24252;DHT22;12380;51.118;4.176;2023-02-26T08:24:36;6.10;99.90
24252;DHT22;12380;51.118;4.176;2023-02-26T08:27:02;6.80;99.90
24252;DHT22;12380;51.118;4.176;2023-02-26T08:29:30;7.20;99.90
24252;DHT22;12380;51.118;4.176;2023-02-26T08:31:55;7.90;99.90
24252;DHT22;12380;51.118;4.176;2023-02-26T08:34:21;8.40;99.90
24252;DHT22;12380;51.118;4.176;2023-02-26T08:36:47;8.60;99.90
24252;DHT22;12380;51.118;4.176;2023-02-26T08:39:14;9.00;99.90
24252;DHT22;12380;51.118;4.176;2023-02-26T08:41:40;9.10;99.90
24252;DHT22;12380;51.118;4.176;2023-02-26T08:44:06;9.80;99.90
24252;DHT22;12380;51.118;4.176;2023-02-26T08:46:33;10.50;99.90
24252;DHT22;12380;51.118;4.176;2023-02-26T08:48:58;9.60;99.90
24252;DHT22;12380;51.118;4.176;2023-02-26T08:51:24;10.40;99.90
24252;DHT22;12380;51.118;4.176;2023-02-26T08:53:52;10.80;99.90
24252;DHT22;12380;51.118;4.176;2023-02-26T08:56:20;10.80;99.90
24252;DHT22;12380;51.118;4.176;2023-02-26T08:58:46;10.30;98.80
24252;DHT22;12380;51.118;4.176;2023-02-26T09:01:12;10.80;95.00
24252;DHT22;12380;51.118;4.176;2023-02-26T09:03:38;11.30;98.10
24252;DHT22;12380;51.118;4.176;2023-02-26T09:06:04;11.00;96.30
24252;DHT22;12380;51.118;4.176;2023-02-26T09:08:31;11.50;94.40
24252;DHT22;12380;51.118;4.176;2023-02-26T09:11:03;11.20;93.20
24252;DHT22;12380;51.118;4.176;2023-02-26T09:13:31;10.80;98.10
24252;DHT22;12380;51.118;4.176;2023-02-26T09:15:57;10.50;95.00
24252;DHT22;12380;51.118;4.176;2023-02-26T09:18:23;10.70;99.40
24252;DHT22;12380;51.118;4.176;2023-02-26T09:20:49;11.10;97.70
24252;DHT22;12380;51.118;4.176;2023-02-26T09:23:14;10.80;97.20
24252;DHT22;12380;51.118;4.176;2023-02-26T09:25:42;11.50;94.00
24252;DHT22;12380;51.118;4.176;2023-02-26T09:28:08;10.70;92.70
24252;DHT22;12380;51.118;4.176;2023-02-26T09:30:36;11.00;94.30
24252;DHT22;12380;51.118;4.176;2023-02-26T09:33:04;10.40;95.90
24252;DHT22;12380;51.118;4.176;2023-02-26T09:35:30;10.30;95.00
24252;DHT22;12380;51.118;4.176;2023-02-26T09:37:55;10.00;95.40
24252;DHT22;12380;51.118;4.176;2023-02-26T09:41:03;9.80;95.00
24252;DHT22;12380;51.118;4.176;2023-02-26T09:46:40;10.20;97.30
24252;DHT22;12380;51.118;4.176;2023-02-26T09:49:22;10.50;96.00
24252;DHT22;12380;51.118;4.176;2023-02-26T09:51:59;10.30;94.80
24252;DHT22;12380;51.118;4.176;2023-02-26T09:54:40;10.10;95.10
24252;DHT22;12380;51.118;4.176;2023-02-26T09:57:19;10.40;92.00
24252;DHT22;12380;51.118;4.176;2023-02-26T09:59:46;9.90;93.00
24252;DHT22;12380;51.118;4.176;2023-02-26T10:02:16;9.40;95.00
24252;DHT22;12380;51.118;4.176;2023-02-26T10:04:49;9.70;99.40
24252;DHT22;12380;51.118;4.176;2023-02-26T10:12:34;10.20;97.00
24252;DHT22;12380;51.118;4.176;2023-02-26T10:15:10;9.50;95.90
24252;DHT22;12380;51.118;4.176;2023-02-26T10:18:09;9.80;98.70
24252;DHT22;12380;51.118;4.176;2023-02-26T10:23:11;9.70;94.50
24252;DHT22;12380;51.118;4.176;2023-02-26T10:25:48;9.60;97.60
24252;DHT22;12380;51.118;4.176;2023-02-26T10:28:37;9.90;96.50
24252;DHT22;12380;51.118;4.176;2023-02-26T10:31:17;10.10;95.00
24252;DHT22;12380;51.118;4.176;2023-02-26T10:34:31;10.50;94.90
24252;DHT22;12380;51.118;4.176;2023-02-26T10:39:53;10.70;95.40
24252;DHT22;12380;51.118;4.176;2023-02-26T10:42:31;11.00;94.00
24252;DHT22;12380;51.118;4.176;2023-02-26T10:45:06;10.80;93.30
24252;DHT22;12380;51.118;4.176;2023-02-26T10:47:43;10.70;93.20
24252;DHT22;12380;51.118;4.176;2023-02-26T10:50:16;10.50;93.10
24252;DHT22;12380;51.118;4.176;2023-02-26T10:52:45;10.20;94.00
24252;DHT22;12380;51.118;4.176;2023-02-26T10:58:22;10.30;94.70
24252;DHT22;12380;51.118;4.176;2023-02-26T11:00:50;10.30;93.50
24252;DHT22;12380;51.118;4.176;2023-02-26T11:03:33;10.10;93.00
24252;DHT22;12380;51.118;4.176;2023-02-26T11:06:04;10.20;96.10
24252;DHT22;12380;51.118;4.176;2023-02-26T11:08:43;10.70;93.20
24252;DHT22;12380;51.118;4.176;2023-02-26T11:11:10;11.50;93.80
24252;DHT22;12380;51.118;4.176;2023-02-26T11:13:37;11.20;90.30
24252;DHT22;12380;51.118;4.176;2023-02-26T11:16:13;11.10;88.20
24252;DHT22;12380;51.118;4.176;2023-02-26T11:18:44;10.60;89.90
24252;DHT22;12380;51.118;4.176;2023-02-26T11:21:33;10.90;91.50
24252;DHT22;12380;51.118;4.176;2023-02-26T11:26:38;10.70;90.20
24252;DHT22;12380;51.118;4.176;2023-02-26T11:29:14;10.40;89.70
24252;DHT22;12380;51.118;4.176;2023-02-26T11:31:40;10.20;91.80
24252;DHT22;12380;51.118;4.176;2023-02-26T11:34:10;10.90;91.50
24252;DHT22;12380;51.118;4.176;2023-02-26T11:36:39;11.50;91.80
24252;DHT22;12380;51.118;4.176;2023-02-26T11:39:17;12.40;87.40
24252;DHT22;12380;51.118;4.176;2023-02-26T11:41:46;12.00;79.20
24252;DHT22;12380;51.118;4.176;2023-02-26T11:44:20;10.70;81.30
24252;DHT22;12380;51.118;4.176;2023-02-26T11:46:56;10.40;89.90
24252;DHT22;12380;51.118;4.176;2023-02-26T11:49:27;10.10;92.30
24252;DHT22;12380;51.118;4.176;2023-02-26T11:52:17;10.40;93.90
24252;DHT22;12380;51.118;4.176;2023-02-26T11:54:45;10.50;91.70
24252;DHT22;12380;51.118;4.176;2023-02-26T11:57:27;10.80;90.80
24252;DHT22;12380;51.118;4.176;2023-02-26T11:59:54;11.50;88.40
24252;DHT22;12380;51.118;4.176;2023-02-26T12:02:24;12.00;86.60
24252;DHT22;12380;51.118;4.176;2023-02-26T12:04:56;11.30;80.50
24252;DHT22;12380;51.118;4.176;2023-02-26T12:07:25;11.60;86.90
24252;DHT22;12380;51.118;4.176;2023-02-26T12:09:53;11.70;83.80
24252;DHT22;12380;51.118;4.176;2023-02-26T12:12:50;11.90;83.20
24252;DHT22;12380;51.118;4.176;2023-02-26T12:15:33;11.30;71.60
24252;DHT22;12380;51.118;4.176;2023-02-26T12:21:05;11.60;76.30
24252;DHT22;12380;51.118;4.176;2023-02-26T12:37:12;11.40;77.20
24252;DHT22;12380;51.118;4.176;2023-02-26T12:48:07;11.00;70.60
24252;DHT22;12380;51.118;4.176;2023-02-26T12:50:44;11.00;72.60
24252;DHT22;12380;51.118;4.176;2023-02-26T12:56:16;11.50;72.90
24252;DHT22;12380;51.118;4.176;2023-02-26T13:10:09;11.20;73.70
24252;DHT22;12380;51.118;4.176;2023-02-26T13:13:37;11.40;67.60
24252;DHT22;12380;51.118;4.176;2023-02-26T13:21:36;11.40;64.90
24252;DHT22;12380;51.118;4.176;2023-02-26T13:24:14;11.30;72.50
24252;DHT22;12380;51.118;4.176;2023-02-26T13:26:44;11.80;68.30
24252;DHT22;12380;51.118;4.176;2023-02-26T13:29:51;11.40;66.10
24252;DHT22;12380;51.118;4.176;2023-02-26T13:32:23;11.80;64.20
24252;DHT22;12380;51.118;4.176;2023-02-26T13:34:56;11.50;65.10
24252;DHT22;12380;51.118;4.176;2023-02-26T13:37:30;11.60;66.60
24252;DHT22;12380;51.118;4.176;2023-02-26T13:48:42;11.20;68.80
24252;DHT22;12380;51.118;4.176;2023-02-26T13:51:30;11.50;64.00
24252;DHT22;12380;51.118;4.176;2023-02-26T13:54:06;11.70;66.60
24252;DHT22;12380;51.118;4.176;2023-02-26T13:59:03;11.10;67.90
24252;DHT22;12380;51.118;4.176;2023-02-26T14:01:48;10.90;67.70
24252;DHT22;12380;51.118;4.176;2023-02-26T14:12:01;12.00;66.90
24252;DHT22;12380;51.118;4.176;2023-02-26T14:15:17;12.20;65.80
24252;DHT22;12380;51.118;4.176;2023-02-26T14:17:28;12.00;66.90
24252;DHT22;12380;51.118;4.176;2023-02-26T14:27:39;11.80;66.90
24252;DHT22;12380;51.118;4.176;2023-02-26T14:33:07;11.20;66.10
24252;DHT22;12380;51.118;4.176;2023-02-26T14:35:41;10.70;71.40
24252;DHT22;12380;51.118;4.176;2023-02-26T14:41:28;11.20;68.90
24252;DHT22;12380;51.118;4.176;2023-02-26T14:46:45;11.30;69.50
24252;DHT22;12380;51.118;4.176;2023-02-26T15:02:48;10.90;70.20
24252;DHT22;12380;51.118;4.176;2023-02-26T15:05:26;11.00;70.10
24252;DHT22;12380;51.118;4.176;2023-02-26T15:14:08;10.00;72.70
24252;DHT22;12380;51.118;4.176;2023-02-26T15:16:52;10.40;72.00
24252;DHT22;12380;51.118;4.176;2023-02-26T15:25:01;11.20;68.40
24252;DHT22;12380;51.118;4.176;2023-02-26T15:27:29;10.30;72.10
24252;DHT22;12380;51.118;4.176;2023-02-26T15:29:56;10.50;72.50
24252;DHT22;12380;51.118;4.176;2023-02-26T15:35:03;10.70;68.50
24252;DHT22;12380;51.118;4.176;2023-02-26T15:37:30;10.70;70.20
24252;DHT22;12380;51.118;4.176;2023-02-26T15:40:02;10.80;71.60
24252;DHT22;12380;51.118;4.176;2023-02-26T15:42:39;10.40;71.20
24252;DHT22;12380;51.118;4.176;2023-02-26T15:45:21;9.60;71.80
24252;DHT22;12380;51.118;4.176;2023-02-26T15:47:55;9.20;74.40
24252;DHT22;12380;51.118;4.176;2023-02-26T15:50:28;9.20;72.60
24252;DHT22;12380;51.118;4.176;2023-02-26T15:52:57;9.10;71.80
24252;DHT22;12380;51.118;4.176;2023-02-26T15:55:24;8.70;75.50
24252;DHT22;12380;51.118;4.176;2023-02-26T15:57:51;8.70;78.70
24252;DHT22;12380;51.118;4.176;2023-02-26T16:00:20;8.30;77.90
24252;DHT22;12380;51.118;4.176;2023-02-26T16:02:53;8.10;78.30
24252;DHT22;12380;51.118;4.176;2023-02-26T16:05:22;8.10;84.00
24252;DHT22;12380;51.118;4.176;2023-02-26T16:07:49;8.00;81.00
24252;DHT22;12380;51.118;4.176;2023-02-26T16:12:53;8.20;81.70
24252;DHT22;12380;51.118;4.176;2023-02-26T16:15:36;8.00;82.70
24252;DHT22;12380;51.118;4.176;2023-02-26T16:18:09;7.90;85.40
24252;DHT22;12380;51.118;4.176;2023-02-26T16:20:49;8.00;84.10
24252;DHT22;12380;51.118;4.176;2023-02-26T16:23:19;8.20;82.50
24252;DHT22;12380;51.118;4.176;2023-02-26T16:25:54;8.40;83.60
24252;DHT22;12380;51.118;4.176;2023-02-26T16:28:33;8.40;84.80
24252;DHT22;12380;51.118;4.176;2023-02-26T16:31:03;8.00;90.40
24252;DHT22;12380;51.118;4.176;2023-02-26T16:33:33;7.90;91.10
24252;DHT22;12380;51.118;4.176;2023-02-26T16:36:14;7.80;92.30
24252;DHT22;12380;51.118;4.176;2023-02-26T16:38:48;7.90;92.30
24252;DHT22;12380;51.118;4.176;2023-02-26T16:41:15;7.50;94.10
24252;DHT22;12380;51.118;4.176;2023-02-26T16:43:52;7.40;94.10
24252;DHT22;12380;51.118;4.176;2023-02-26T16:46:40;7.20;96.20
24252;DHT22;12380;51.118;4.176;2023-02-26T16:49:25;7.20;96.90
24252;DHT22;12380;51.118;4.176;2023-02-26T16:51:53;7.00;99.00
24252;DHT22;12380;51.118;4.176;2023-02-26T16:54:24;7.00;99.90
24252;DHT22;12380;51.118;4.176;2023-02-26T16:57:21;6.70;99.90
24252;DHT22;12380;51.118;4.176;2023-02-26T16:59:54;6.80;99.90
24252;DHT22;12380;51.118;4.176;2023-02-26T17:02:23;6.80;99.90
24252;DHT22;12380;51.118;4.176;2023-02-26T17:04:53;6.70;99.90
24252;DHT22;12380;51.118;4.176;2023-02-26T17:09:55;6.90;99.90
24252;DHT22;12380;51.118;4.176;2023-02-26T17:15:15;6.60;99.90
24252;DHT22;12380;51.118;4.176;2023-02-26T17:17:42;6.50;99.90
24252;DHT22;12380;51.118;4.176;2023-02-26T17:20:12;6.40;99.90
24252;DHT22;12380;51.118;4.176;2023-02-26T17:22:38;6.30;99.90
24252;DHT22;12380;51.118;4.176;2023-02-26T17:25:04;6.30;99.90
24252;DHT22;12380;51.118;4.176;2023-02-26T17:27:35;6.10;99.90
24252;DHT22;12380;51.118;4.176;2023-02-26T17:30:03;6.10;99.90
24252;DHT22;12380;51.118;4.176;2023-02-26T17:32:29;5.80;99.90
24252;DHT22;12380;51.118;4.176;2023-02-26T17:34:56;5.80;99.90
24252;DHT22;12380;51.118;4.176;2023-02-26T17:37:22;5.90;99.90
24252;DHT22;12380;51.118;4.176;2023-02-26T17:39:49;6.00;99.90
24252;DHT22;12380;51.118;4.176;2023-02-26T17:42:18;5.80;99.90
24252;DHT22;12380;51.118;4.176;2023-02-26T17:44:48;5.70;99.90
24252;DHT22;12380;51.118;4.176;2023-02-26T17:47:19;5.80;99.90
24252;DHT22;12380;51.118;4.176;2023-02-26T17:49:45;5.90;99.90
24252;DHT22;12380;51.118;4.176;2023-02-26T17:52:13;5.90;99.90
24252;DHT22;12380;51.118;4.176;2023-02-26T17:54:39;5.90;99.90
24252;DHT22;12380;51.118;4.176;2023-02-26T17:57:05;5.80;99.90
24252;DHT22;12380;51.118;4.176;2023-02-26T17:59:33;5.80;99.90
24252;DHT22;12380;51.118;4.176;2023-02-26T18:02:31;5.80;99.90
24252;DHT22;12380;51.118;4.176;2023-02-26T18:04:59;5.80;99.90
24252;DHT22;12380;51.118;4.176;2023-02-26T18:07:25;5.80;99.90
24252;DHT22;12380;51.118;4.176;2023-02-26T18:09:51;5.70;99.90
24252;DHT22;12380;51.118;4.176;2023-02-26T18:12:19;5.70;99.90
24252;DHT22;12380;51.118;4.176;2023-02-26T18:14:45;5.60;99.90
24252;DHT22;12380;51.118;4.176;2023-02-26T18:17:20;5.70;99.90
24252;DHT22;12380;51.118;4.176;2023-02-26T18:19:47;5.60;99.90
24252;DHT22;12380;51.118;4.176;2023-02-26T18:22:18;5.60;99.90
24252;DHT22;12380;51.118;4.176;2023-02-26T18:24:47;5.30;99.90
24252;DHT22;12380;51.118;4.176;2023-02-26T18:27:15;5.30;99.90
24252;DHT22;12380;51.118;4.176;2023-02-26T18:29:42;5.30;99.90
24252;DHT22;12380;51.118;4.176;2023-02-26T18:32:19;5.20;99.90
24252;DHT22;12380;51.118;4.176;2023-02-26T18:34:45;4.90;99.90
24252;DHT22;12380;51.118;4.176;2023-02-26T18:37:19;4.90;99.90
24252;DHT22;12380;51.118;4.176;2023-02-26T18:39:48;4.80;99.90
24252;DHT22;12380;51.118;4.176;2023-02-26T18:42:23;4.80;99.90
24252;DHT22;12380;51.118;4.176;2023-02-26T18:44:49;4.90;99.90
24252;DHT22;12380;51.118;4.176;2023-02-26T18:47:19;5.00;99.90
24252;DHT22;12380;51.118;4.176;2023-02-26T18:49:45;5.10;99.90
24252;DHT22;12380;51.118;4.176;2023-02-26T18:52:14;5.00;99.90
24252;DHT22;12380;51.118;4.176;2023-02-26T18:54:40;5.00;99.90
24252;DHT22;12380;51.118;4.176;2023-02-26T18:57:07;5.10;99.90
24252;DHT22;12380;51.118;4.176;2023-02-26T18:59:36;5.00;99.90
24252;DHT22;12380;51.118;4.176;2023-02-26T19:02:03;5.10;99.90
24252;DHT22;12380;51.118;4.176;2023-02-26T19:04:29;5.10;99.90
24252;DHT22;12380;51.118;4.176;2023-02-26T19:06:55;5.10;99.90
24252;DHT22;12380;51.118;4.176;2023-02-26T19:09:21;5.00;99.90
24252;DHT22;12380;51.118;4.176;2023-02-26T19:11:47;4.80;99.90
24252;DHT22;12380;51.118;4.176;2023-02-26T19:14:13;4.80;99.90
24252;DHT22;12380;51.118;4.176;2023-02-26T19:16:39;4.90;99.90